createdAt,value
2018-06-01T00:00:45.111Z,20.00
2018-06-01T00:01:47.979Z,21.25
2018-06-01T00:02:50.896Z,20.25
2018-06-01T00:03:53.797Z,21.50
2018-06-01T00:04:57.791Z,20.25
2018-06-01T00:06:01.271Z,21.00
2018-06-01T00:07:04.121Z,20.00
2018-06-01T00:08:07.436Z,18.25
2018-06-01T00:09:11.220Z,20.25
2018-06-01T00:10:14.454Z,19.25
2018-06-01T00:11:17.566Z,18.00
2018-06-01T00:12:20.389Z,20.50
2018-06-01T00:13:23.531Z,19.00
2018-06-01T00:14:26.766Z,17.00
2018-06-01T00:15:30.048Z,17.50
2018-06-01T00:16:33.202Z,20.25
2018-06-01T00:17:36.378Z,17.50
2018-06-01T00:18:39.333Z,18.00
2018-06-01T00:19:42.143Z,17.50
2018-06-01T00:20:45.082Z,18.75
2018-06-01T00:21:48.120Z,17.75
2018-06-01T00:22:51.064Z,19.00
2018-06-01T00:23:54.166Z,19.50
2018-06-01T00:24:56.994Z,22.25
2018-06-01T00:25:59.819Z,19.50
2018-06-01T00:27:03.008Z,21.75
2018-06-01T00:28:05.813Z,20.75
2018-06-01T00:29:09.179Z,17.50
2018-06-01T00:30:12.824Z,17.25
2018-06-01T00:31:15.730Z,20.00
2018-06-01T00:32:18.593Z,18.75
2018-06-01T00:33:21.452Z,17.75
2018-06-01T00:34:24.781Z,20.00
2018-06-01T00:35:27.957Z,19.25
2018-06-01T00:36:31.526Z,20.00
2018-06-01T00:37:34.366Z,16.00
2018-06-01T00:38:37.806Z,18.00
2018-06-01T00:39:41.278Z,17.00
2018-06-01T00:40:44.205Z,17.00
2018-06-01T00:41:47.188Z,17.75
2018-06-01T00:42:50.559Z,16.25
2018-06-01T00:43:53.401Z,19.50
2018-06-01T00:44:56.332Z,18.50
2018-06-01T00:45:59.432Z,17.25
2018-06-01T00:47:02.427Z,18.00
2018-06-01T00:48:07.041Z,18.75
2018-06-01T00:49:10.322Z,17.25
2018-06-01T00:50:13.468Z,17.00
2018-06-01T00:51:16.546Z,19.00
2018-06-01T00:52:19.362Z,22.25
2018-06-01T00:53:22.386Z,19.75
2018-06-01T00:54:25.441Z,17.25
2018-06-01T00:55:28.522Z,20.00
2018-06-01T00:56:31.324Z,20.00
2018-06-01T00:57:34.096Z,18.50
2018-06-01T00:58:37.044Z,18.25
2018-06-01T00:59:40.009Z,24.00
2018-06-01T01:00:42.845Z,17.75
2018-06-01T01:01:45.942Z,18.50
2018-06-01T01:02:48.842Z,19.50
2018-06-01T01:03:51.784Z,20.75
2018-06-01T01:04:54.561Z,20.00
2018-06-01T01:05:57.387Z,19.75
2018-06-01T01:07:00.563Z,16.25
2018-06-01T01:08:04.103Z,19.75
2018-06-01T01:09:06.921Z,20.50
2018-06-01T01:10:10.170Z,18.25
2018-06-01T01:11:13.132Z,20.00
2018-06-01T01:12:16.336Z,19.50
2018-06-01T01:13:19.465Z,19.50
2018-06-01T01:14:22.914Z,18.50
2018-06-01T01:15:26.168Z,20.00
2018-06-01T01:16:29.223Z,21.00
2018-06-01T01:17:32.288Z,20.25
2018-06-01T01:18:35.348Z,20.25
2018-06-01T01:19:38.347Z,21.75
2018-06-01T01:20:46.887Z,19.50
2018-06-01T01:21:50.019Z,19.25
2018-06-01T01:22:53.101Z,22.50
2018-06-01T01:23:56.757Z,20.75
2018-06-01T01:24:59.679Z,24.50
2018-06-01T01:26:02.870Z,20.25
2018-06-01T01:27:06.291Z,22.25
2018-06-01T01:28:09.768Z,22.00
2018-06-01T01:29:13.703Z,25.25
2018-06-01T01:30:16.834Z,20.50
2018-06-01T01:31:21.394Z,22.75
2018-06-01T01:32:24.209Z,23.00
2018-06-01T01:33:27.323Z,23.25
2018-06-01T01:34:30.597Z,22.25
2018-06-01T01:35:34.512Z,23.00
2018-06-01T01:36:37.702Z,21.50
2018-06-01T01:37:40.859Z,20.00
2018-06-01T01:38:44.098Z,21.00
2018-06-01T01:39:47.526Z,22.75
2018-06-01T01:40:50.740Z,25.25
2018-06-01T01:41:53.540Z,22.50
2018-06-01T01:42:56.344Z,19.00
2018-06-01T01:43:59.660Z,21.50
2018-06-01T01:45:02.688Z,23.75
2018-06-01T01:46:05.842Z,24.25
2018-06-01T01:47:08.639Z,22.50
2018-06-01T01:48:11.450Z,24.00
2018-06-01T01:49:14.275Z,24.75
2018-06-01T01:50:17.070Z,23.75
2018-06-01T01:51:19.909Z,20.75
2018-06-01T01:52:23.002Z,23.50
2018-06-01T01:53:25.795Z,25.50
2018-06-01T01:54:28.936Z,17.75
2018-06-01T01:55:31.838Z,21.75
2018-06-01T01:56:34.864Z,23.00
2018-06-01T01:57:37.749Z,22.75
2018-06-01T01:58:40.847Z,21.75
2018-06-01T01:59:43.635Z,17.50
2018-06-01T02:00:46.427Z,22.00
2018-06-01T02:01:49.221Z,18.75
2018-06-01T02:02:52.029Z,23.00
2018-06-01T02:03:54.865Z,19.25
2018-06-01T02:04:57.947Z,20.00
2018-06-01T02:06:00.743Z,19.50
2018-06-01T02:07:03.584Z,20.00
2018-06-01T02:08:06.386Z,20.50
2018-06-01T02:09:09.226Z,20.00
2018-06-01T02:10:12.075Z,17.00
2018-06-01T02:11:15.167Z,24.75
2018-06-01T02:12:17.979Z,23.00
2018-06-01T02:13:20.791Z,20.00
2018-06-01T02:14:23.602Z,21.50
2018-06-01T02:15:26.443Z,20.75
2018-06-01T02:16:29.259Z,21.75
2018-06-01T02:17:32.490Z,21.00
2018-06-01T02:18:35.323Z,23.50
2018-06-01T02:19:38.197Z,25.75
2018-06-01T02:20:41.030Z,27.25
2018-06-01T02:21:43.828Z,22.00
2018-06-01T02:22:46.650Z,22.00
2018-06-01T02:23:49.755Z,22.50
2018-06-01T02:24:52.559Z,23.50
2018-06-01T02:25:55.434Z,19.75
2018-06-01T02:26:58.219Z,21.00
2018-06-01T02:28:01.030Z,20.75
2018-06-01T02:29:03.843Z,23.00
2018-06-01T02:30:06.981Z,21.75
2018-06-01T02:31:09.856Z,23.25
2018-06-01T02:32:12.694Z,26.00
2018-06-01T02:33:15.505Z,27.50
2018-06-01T02:34:18.333Z,26.50
2018-06-01T02:35:23.959Z,27.50
2018-06-01T02:36:27.086Z,29.25
2018-06-01T02:37:29.867Z,25.50
2018-06-01T02:38:32.714Z,26.50
2018-06-01T02:39:35.539Z,27.50
2018-06-01T02:40:38.337Z,29.50
2018-06-01T02:41:41.168Z,29.25
2018-06-01T02:42:44.343Z,26.75
2018-06-01T02:43:47.215Z,24.50
2018-06-01T02:44:50.013Z,21.50
2018-06-01T02:45:52.834Z,24.25
2018-06-01T02:46:55.600Z,22.25
2018-06-01T02:47:58.416Z,20.75
2018-06-01T02:49:01.577Z,18.25
2018-06-01T02:50:04.426Z,23.00
2018-06-01T02:51:07.273Z,22.75
2018-06-01T02:52:10.051Z,21.50
2018-06-01T02:53:12.871Z,25.50
2018-06-01T02:54:15.706Z,22.50
2018-06-01T02:55:18.823Z,19.75
2018-06-01T02:56:21.601Z,25.50
2018-06-01T02:57:24.422Z,24.00
2018-06-01T02:58:27.222Z,25.00
2018-06-01T02:59:30.011Z,27.00
2018-06-01T03:00:32.848Z,29.00
2018-06-01T03:01:36.000Z,27.25
2018-06-01T03:02:38.844Z,23.50
2018-06-01T03:03:41.664Z,24.75
2018-06-01T03:04:44.693Z,23.00
2018-06-01T03:05:47.522Z,25.00
2018-06-01T03:06:50.319Z,23.75
2018-06-01T03:07:53.419Z,23.00
2018-06-01T03:08:56.361Z,20.00
2018-06-01T03:09:59.216Z,20.25
2018-06-01T03:11:02.061Z,23.25
2018-06-01T03:12:04.933Z,30.25
2018-06-01T03:13:07.788Z,30.25
2018-06-01T03:14:11.400Z,28.50
2018-06-01T03:15:14.318Z,28.75
2018-06-01T03:16:17.324Z,27.75
2018-06-01T03:17:20.388Z,25.50
2018-06-01T03:18:23.184Z,23.00
2018-06-01T03:19:25.982Z,20.50
2018-06-01T03:20:29.109Z,22.25
2018-06-01T03:21:31.922Z,23.75
2018-06-01T03:22:34.733Z,27.50
2018-06-01T03:23:37.569Z,30.25
2018-06-01T03:24:40.407Z,28.00
2018-06-01T03:25:43.232Z,34.25
2018-06-01T03:26:46.344Z,31.50
2018-06-01T03:27:49.155Z,33.75
2018-06-01T03:28:51.979Z,30.25
2018-06-01T03:29:54.856Z,27.00
2018-06-01T03:30:57.691Z,32.50
2018-06-01T03:32:00.504Z,32.50
2018-06-01T03:33:03.639Z,26.50
2018-06-01T03:34:06.578Z,30.00
2018-06-01T03:35:09.404Z,28.00
2018-06-01T03:36:12.199Z,31.00
2018-06-01T03:37:14.993Z,35.50
2018-06-01T03:38:17.804Z,31.75
2018-06-01T03:39:20.790Z,31.75
2018-06-01T03:40:23.646Z,30.00
2018-06-01T03:41:26.492Z,33.00
2018-06-01T03:42:29.279Z,26.25
2018-06-01T03:43:32.595Z,24.50
2018-06-01T03:44:35.660Z,26.25
2018-06-01T03:45:38.460Z,24.75
2018-06-01T03:46:41.275Z,24.75
2018-06-01T03:47:44.093Z,25.00
2018-06-01T03:48:46.919Z,23.00
2018-06-01T03:49:49.732Z,24.25
2018-06-01T03:50:52.867Z,24.50
2018-06-01T03:51:55.656Z,23.25
2018-06-01T03:52:58.451Z,28.00
2018-06-01T03:54:01.221Z,28.75
2018-06-01T03:55:04.055Z,27.50
2018-06-01T03:56:06.846Z,27.00
2018-06-01T03:57:09.941Z,31.25
2018-06-01T03:58:12.724Z,27.75
2018-06-01T03:59:15.558Z,29.75
2018-06-01T04:00:18.374Z,32.50
2018-06-01T04:01:21.216Z,31.00
2018-06-01T04:02:25.194Z,30.00
2018-06-01T04:03:28.346Z,30.25
2018-06-01T04:04:31.176Z,27.50
2018-06-01T04:05:33.977Z,31.00
2018-06-01T04:06:36.816Z,24.25
2018-06-01T04:07:39.651Z,25.50
2018-06-01T04:08:42.449Z,25.50
2018-06-01T04:09:45.756Z,27.75
2018-06-01T04:10:48.575Z,30.50
2018-06-01T04:11:51.380Z,25.25
2018-06-01T04:12:54.188Z,28.25
2018-06-01T04:13:57.145Z,31.00
2018-06-01T04:14:59.976Z,28.00
2018-06-01T04:16:03.241Z,23.50
2018-06-01T04:17:07.690Z,23.75
2018-06-01T04:18:10.505Z,26.00
2018-06-01T04:19:13.617Z,27.75
2018-06-01T04:20:16.656Z,24.75
2018-06-01T04:21:19.489Z,22.75
2018-06-01T04:22:22.891Z,26.25
2018-06-01T04:23:26.028Z,24.25
2018-06-01T04:24:28.886Z,24.00
2018-06-01T04:25:31.730Z,20.75
2018-06-01T04:26:34.554Z,26.00
2018-06-01T04:27:37.957Z,23.50
2018-06-01T04:28:41.479Z,23.75
2018-06-01T04:29:44.318Z,27.25
2018-06-01T04:30:47.145Z,25.00
2018-06-01T04:31:49.991Z,25.00
2018-06-01T04:32:52.834Z,25.50
2018-06-01T04:33:55.644Z,30.25
2018-06-01T04:34:58.780Z,23.75
2018-06-01T04:36:01.684Z,25.50
2018-06-01T04:37:04.519Z,27.00
2018-06-01T04:38:07.426Z,23.50
2018-06-01T04:50:57.844Z,19.50
2018-06-01T04:52:00.684Z,28.25
2018-06-01T04:53:03.537Z,22.00
2018-06-01T04:54:06.379Z,23.50
2018-06-01T04:55:09.233Z,19.50
2018-06-01T04:56:12.793Z,17.75
2018-06-01T04:57:15.631Z,17.50
2018-06-01T04:58:18.467Z,15.25
2018-06-01T04:59:21.274Z,18.25
2018-06-01T05:00:24.446Z,18.00
2018-06-01T05:01:27.290Z,16.50
2018-06-01T05:02:30.530Z,19.00
2018-06-01T05:03:33.350Z,22.00
2018-06-01T05:04:36.173Z,22.25
2018-06-01T05:05:38.982Z,19.25
2018-06-01T05:06:41.842Z,15.75
2018-06-01T05:07:45.309Z,15.25
2018-06-01T05:08:48.584Z,16.75
2018-06-01T05:09:51.394Z,15.50
2018-06-01T05:10:54.221Z,13.25
2018-06-01T05:11:58.713Z,14.00
2018-06-01T05:13:01.834Z,16.00
2018-06-01T05:14:04.704Z,14.25
2018-06-01T05:15:07.856Z,12.00
2018-06-01T05:16:10.726Z,12.75
2018-06-01T05:17:13.533Z,14.00
2018-06-01T05:18:16.445Z,14.00
2018-06-01T05:19:19.314Z,14.00
2018-06-01T05:20:22.241Z,12.25
2018-06-01T05:21:25.496Z,13.75
2018-06-01T05:22:28.294Z,13.00
2018-06-01T05:23:31.142Z,11.00
2018-06-01T05:24:33.968Z,15.25
2018-06-01T05:25:36.774Z,15.25
2018-06-01T05:26:39.627Z,11.50
2018-06-01T05:27:43.197Z,14.75
2018-06-01T05:28:46.108Z,14.00
2018-06-01T05:29:48.920Z,17.75
2018-06-01T05:30:51.786Z,16.00
2018-06-01T05:31:54.717Z,14.50
2018-06-01T05:32:57.523Z,10.25
2018-06-01T05:34:00.858Z,15.50
2018-06-01T05:35:03.763Z,15.00
2018-06-01T05:36:06.570Z,12.50
2018-06-01T05:37:09.487Z,13.75
2018-06-01T05:38:12.369Z,11.25
2018-06-01T05:39:15.323Z,15.50
2018-06-01T05:40:18.740Z,20.25
2018-06-01T05:41:21.904Z,18.50
2018-06-01T05:42:24.791Z,19.00
2018-06-01T05:43:27.747Z,21.00
2018-06-01T05:44:30.587Z,18.75
2018-06-01T05:45:33.478Z,17.00
2018-06-01T05:46:36.783Z,18.50
2018-06-01T05:47:39.791Z,17.50
2018-06-01T05:48:42.588Z,21.25
2018-06-01T05:49:45.454Z,19.75
2018-06-01T05:50:48.336Z,21.25
2018-06-01T05:51:51.176Z,18.00
2018-06-01T05:52:54.363Z,18.25
2018-06-01T05:53:57.158Z,17.00
2018-06-01T05:54:59.974Z,22.75
2018-06-01T05:56:02.844Z,15.00
2018-06-01T05:57:05.662Z,17.00
2018-06-01T05:58:08.790Z,17.75
2018-06-01T05:59:12.024Z,17.50
2018-06-01T06:00:14.854Z,17.50
2018-06-01T06:01:17.681Z,17.00
2018-06-01T06:02:20.541Z,21.25
2018-06-01T06:03:23.362Z,22.25
2018-06-01T06:04:26.224Z,22.25
2018-06-01T06:05:29.455Z,23.25
2018-06-01T06:06:32.332Z,23.25
2018-06-01T06:07:35.172Z,25.25
2018-06-01T06:08:38.030Z,25.50
2018-06-01T06:09:40.846Z,18.00
2018-06-01T06:10:43.720Z,23.50
2018-06-01T06:11:46.987Z,21.75
2018-06-01T06:12:49.971Z,28.00
2018-06-01T06:13:53.093Z,21.25
2018-06-01T06:14:56.195Z,18.50
2018-06-01T06:15:59.327Z,20.75
2018-06-01T06:17:02.226Z,24.25
2018-06-01T06:18:05.477Z,23.00
2018-06-01T06:19:08.394Z,23.50
2018-06-01T06:20:11.227Z,27.75
2018-06-01T06:21:14.087Z,23.00
2018-06-01T06:22:16.905Z,24.50
2018-06-01T06:23:19.762Z,26.25
2018-06-01T06:24:22.917Z,24.50
2018-06-01T06:25:25.714Z,23.00
2018-06-01T06:26:28.547Z,19.00
2018-06-01T06:27:31.387Z,26.25
2018-06-01T06:28:34.284Z,21.00
2018-06-01T06:29:37.186Z,25.00
2018-06-01T06:30:40.364Z,25.75
2018-06-01T06:31:43.182Z,21.00
2018-06-01T06:32:46.027Z,21.25
2018-06-01T06:33:49.105Z,22.25
2018-06-01T06:34:51.990Z,21.25
2018-06-01T06:35:54.829Z,22.25
2018-06-01T06:36:58.039Z,24.25
2018-06-01T06:38:00.883Z,20.25
2018-06-01T06:39:04.520Z,21.00
2018-06-01T06:40:07.403Z,22.25
2018-06-01T06:41:10.339Z,21.00
2018-06-01T06:42:13.286Z,21.25
2018-06-01T06:43:17.170Z,20.50
2018-06-01T06:44:20.007Z,24.25
2018-06-01T06:45:23.323Z,20.75
2018-06-01T06:46:26.129Z,25.00
2018-06-01T06:47:28.985Z,18.50
2018-06-01T06:48:31.857Z,17.50
2018-06-01T06:49:35.067Z,17.50
2018-06-01T06:50:37.932Z,21.00
2018-06-01T06:51:40.814Z,21.25
2018-06-01T06:52:43.689Z,18.00
2018-06-01T06:53:46.560Z,17.00
2018-06-01T06:54:49.417Z,19.00
2018-06-01T06:55:52.748Z,19.00
2018-06-01T06:56:55.665Z,24.00
2018-06-01T06:57:58.504Z,17.00
2018-06-01T06:59:01.369Z,17.50
2018-06-01T07:00:04.232Z,18.00
2018-06-01T07:01:07.067Z,19.75
2018-06-01T07:02:10.247Z,17.00
2018-06-01T07:03:13.107Z,16.25
2018-06-01T07:04:16.020Z,10.50
2018-06-01T07:05:18.868Z,15.25
2018-06-01T07:06:21.722Z,15.00
2018-06-01T07:07:24.575Z,13.50
2018-06-01T07:08:27.974Z,12.25
2018-06-01T07:09:30.945Z,15.50
2018-06-01T07:10:33.773Z,13.00
2018-06-01T07:11:36.640Z,12.00
2018-06-01T07:12:39.563Z,10.00
2018-06-01T07:13:42.407Z,13.00
2018-06-01T07:14:45.540Z,11.00
2018-06-01T07:15:48.407Z,15.75
2018-06-01T07:16:51.298Z,12.25
2018-06-01T07:17:54.171Z,12.50
2018-06-01T07:18:57.050Z,10.00
2018-06-01T07:19:59.919Z,14.75
2018-06-01T07:21:03.063Z,12.75
2018-06-01T07:22:05.887Z,13.75
2018-06-01T07:23:08.746Z,15.50
2018-06-01T07:24:11.628Z,13.00
2018-06-01T07:25:14.526Z,14.50
2018-06-01T07:26:17.358Z,10.50
2018-06-01T07:27:20.679Z,15.00
2018-06-01T07:28:23.514Z,12.25
2018-06-01T07:29:27.016Z,16.25
2018-06-01T07:30:29.885Z,16.00
2018-06-01T07:31:32.820Z,14.00
2018-06-01T07:32:36.015Z,15.25
2018-06-01T07:33:39.281Z,13.00
2018-06-01T07:34:42.319Z,14.25
2018-06-01T07:35:45.559Z,13.25
2018-06-01T07:36:48.441Z,13.00
2018-06-01T07:37:51.254Z,13.50
2018-06-01T07:38:54.132Z,12.75
2018-06-01T07:39:57.414Z,17.00
2018-06-01T07:41:00.221Z,16.75
2018-06-01T07:42:03.113Z,15.50
2018-06-01T07:43:06.066Z,13.00
2018-06-01T07:44:09.064Z,11.50
2018-06-01T07:45:12.183Z,19.25
2018-06-01T07:46:15.625Z,15.75
2018-06-01T07:47:18.509Z,15.75
2018-06-01T07:48:21.349Z,14.25
2018-06-01T07:49:24.300Z,15.00
2018-06-01T07:50:27.157Z,15.25
2018-06-01T07:51:30.096Z,17.00
2018-06-01T07:52:33.330Z,14.50
2018-06-01T07:53:36.151Z,13.00
2018-06-01T07:54:39.044Z,13.50
2018-06-01T07:55:41.910Z,13.50
2018-06-01T07:56:44.791Z,15.50
2018-06-01T07:57:48.264Z,15.50
2018-06-01T07:58:51.611Z,17.25
2018-06-01T07:59:54.421Z,17.50
2018-06-01T08:00:57.224Z,19.25
2018-06-01T08:02:00.081Z,20.50
2018-06-01T08:03:02.917Z,21.50
2018-06-01T08:04:05.785Z,19.25
2018-06-01T08:05:09.081Z,29.75
2018-06-01T08:06:11.928Z,23.50
2018-06-01T08:07:14.766Z,21.00
2018-06-01T08:08:17.623Z,21.00
2018-06-01T08:09:20.471Z,25.75
2018-06-01T08:10:23.338Z,24.00
2018-06-01T08:11:26.451Z,20.00
2018-06-01T08:12:29.263Z,21.00
2018-06-01T08:13:32.095Z,24.50
2018-06-01T08:14:34.883Z,19.75
2018-06-01T08:15:37.761Z,24.00
2018-06-01T08:16:40.601Z,24.25
2018-06-01T08:17:44.381Z,27.25
2018-06-01T08:18:47.282Z,28.00
2018-06-01T08:19:50.136Z,23.25
2018-06-01T08:20:52.950Z,26.75
2018-06-01T08:21:55.894Z,21.00
2018-06-01T08:22:59.036Z,22.25
2018-06-01T08:24:02.470Z,21.50
2018-06-01T08:25:06.131Z,23.75
2018-06-01T08:26:09.198Z,18.50
2018-06-01T08:27:12.117Z,19.75
2018-06-01T08:28:14.976Z,18.50
2018-06-01T08:29:17.828Z,22.75
2018-06-01T08:30:20.981Z,17.50
2018-06-01T08:31:23.842Z,20.25
2018-06-01T08:32:26.747Z,19.00
2018-06-01T08:33:29.551Z,16.25
2018-06-01T08:34:33.333Z,16.00
2018-06-01T08:35:36.149Z,18.25
2018-06-01T08:36:40.171Z,17.00
2018-06-01T08:37:43.019Z,15.50
2018-06-01T08:38:45.875Z,14.50
2018-06-01T08:39:48.691Z,16.50
2018-06-01T08:40:51.560Z,17.50
2018-06-01T08:41:54.400Z,17.00
2018-06-01T08:42:57.601Z,17.00
2018-06-01T08:44:00.435Z,19.75
2018-06-01T08:45:03.315Z,16.50
2018-06-01T08:46:06.552Z,16.75
2018-06-01T08:47:09.448Z,20.50
2018-06-01T08:48:17.799Z,19.00
2018-06-01T08:49:21.145Z,20.00
2018-06-01T08:50:24.007Z,17.00
2018-06-01T08:51:26.831Z,17.00
2018-06-01T08:52:29.668Z,17.00
2018-06-01T08:53:32.488Z,19.75
2018-06-01T08:54:36.874Z,17.00
2018-06-01T08:55:39.951Z,17.75
2018-06-01T08:56:43.358Z,18.75
2018-06-01T08:57:46.183Z,16.00
2018-06-01T08:58:49.058Z,21.50
2018-06-01T08:59:51.880Z,20.25
2018-06-01T09:00:55.085Z,17.75
2018-06-01T09:01:57.933Z,23.00
2018-06-01T09:03:00.771Z,20.00
2018-06-01T09:04:03.627Z,23.25
2018-06-01T09:05:06.484Z,18.75
2018-06-01T09:06:09.345Z,22.00
2018-06-01T09:07:12.499Z,25.50
2018-06-01T09:08:15.363Z,20.00
2018-06-01T09:09:18.292Z,25.25
2018-06-01T09:10:21.161Z,21.00
2018-06-01T09:11:23.935Z,27.75
2018-06-01T09:12:26.856Z,22.75
2018-06-01T09:13:30.167Z,20.00
2018-06-01T09:14:32.993Z,20.00
2018-06-01T09:15:35.785Z,20.25
2018-06-01T09:16:38.699Z,21.50
2018-06-01T09:17:41.598Z,18.50
2018-06-01T09:18:44.519Z,21.00
2018-06-01T09:19:47.814Z,27.75
2018-06-01T09:20:50.685Z,20.50
2018-06-01T09:21:53.503Z,21.50
2018-06-01T09:22:56.321Z,22.75
2018-06-01T09:23:59.744Z,25.00
2018-06-01T09:25:03.596Z,20.25
2018-06-01T09:26:06.901Z,19.50
2018-06-01T09:27:09.808Z,20.25
2018-06-01T09:28:12.747Z,22.00
2018-06-01T09:29:15.703Z,17.00
2018-06-01T09:30:18.523Z,19.25
2018-06-01T09:31:21.421Z,17.00
2018-06-01T09:32:24.617Z,18.25
2018-06-01T09:33:27.482Z,20.00
2018-06-01T09:34:30.354Z,18.75
2018-06-01T09:35:33.320Z,18.75
2018-06-01T09:36:36.375Z,20.25
2018-06-01T09:37:39.326Z,19.75
2018-06-01T09:38:42.737Z,18.25
2018-06-01T09:39:45.597Z,19.00
2018-06-01T09:40:48.627Z,19.00
2018-06-01T09:41:51.510Z,19.00
2018-06-01T09:42:54.394Z,19.00
2018-06-01T09:43:57.346Z,19.50
2018-06-01T09:45:00.696Z,20.00
2018-06-01T09:46:03.912Z,18.75
2018-06-01T09:47:06.897Z,24.00
2018-06-01T09:48:09.887Z,19.75
2018-06-01T09:49:12.771Z,25.75
2018-06-01T09:50:15.679Z,20.75
2018-06-01T09:51:18.910Z,28.50
2018-06-01T09:52:21.863Z,21.75
2018-06-01T09:53:25.369Z,23.75
2018-06-01T09:54:28.443Z,27.00
2018-06-01T09:55:31.314Z,21.50
2018-06-01T09:56:34.592Z,26.75
2018-06-01T09:58:48.154Z,26.25
2018-06-01T09:59:51.091Z,26.50
2018-06-01T10:00:58.014Z,25.75
2018-06-01T10:02:00.910Z,29.50
2018-06-01T10:03:03.812Z,24.75
2018-06-01T10:04:07.234Z,28.50
2018-06-01T10:05:10.196Z,27.75
2018-06-01T10:06:13.821Z,32.00
2018-06-01T10:07:17.487Z,26.25
2018-06-01T10:08:20.337Z,22.25
2018-06-01T10:09:26.348Z,31.50
2018-06-01T10:10:33.490Z,32.25
2018-06-01T10:11:36.395Z,26.75
2018-06-01T10:12:39.337Z,29.25
2018-06-01T10:13:42.273Z,25.25
2018-06-01T10:14:45.576Z,35.75
2018-06-01T10:15:48.675Z,25.00
2018-06-01T10:16:52.032Z,25.25
2018-06-01T10:17:55.066Z,28.25
2018-06-01T10:18:58.037Z,22.25
2018-06-01T10:20:00.980Z,28.00
2018-06-01T10:21:04.932Z,27.50
2018-06-01T10:22:07.897Z,30.50
2018-06-01T10:23:11.188Z,28.50
2018-06-01T10:24:14.095Z,25.00
2018-06-01T10:25:17.564Z,27.25
2018-06-01T10:26:20.441Z,24.00
2018-06-01T10:27:23.465Z,23.25
2018-06-01T10:28:26.355Z,23.25
2018-06-01T10:29:29.608Z,27.00
2018-06-01T10:30:32.618Z,23.75
2018-06-01T10:31:35.488Z,23.00
2018-06-01T10:32:38.510Z,20.50
2018-06-01T10:33:41.402Z,24.75
2018-06-01T10:34:44.310Z,22.00
2018-06-01T10:35:47.633Z,22.50
2018-06-01T10:36:51.488Z,27.75
2018-06-01T10:37:54.429Z,22.50
2018-06-01T10:38:57.283Z,22.25
2018-06-01T10:40:00.113Z,21.25
2018-06-01T10:41:02.988Z,22.75
2018-06-01T10:42:06.249Z,21.75
2018-06-01T10:43:09.278Z,21.50
2018-06-01T10:44:12.181Z,24.00
2018-06-01T10:45:15.056Z,23.25
2018-06-01T10:46:18.005Z,18.25
2018-06-01T10:47:20.914Z,22.75
2018-06-01T10:48:25.020Z,20.00
2018-06-01T10:49:28.138Z,19.75
2018-06-01T10:50:31.158Z,16.00
2018-06-01T10:51:34.117Z,20.00
2018-06-01T10:52:37.390Z,20.00
2018-06-01T10:53:40.746Z,20.00
2018-06-01T10:54:44.196Z,16.00
2018-06-01T10:55:47.017Z,17.00
2018-06-01T10:56:50.053Z,14.00
2018-06-01T10:57:53.722Z,17.50
2018-06-01T10:58:56.668Z,15.00
2018-06-01T10:59:59.528Z,16.50
2018-06-01T11:01:03.008Z,17.50
2018-06-01T11:02:05.956Z,16.75
2018-06-01T11:03:09.313Z,18.00
2018-06-01T11:04:18.671Z,17.50
2018-06-01T11:05:26.733Z,15.50
2018-06-01T11:06:34.050Z,15.00
2018-06-01T11:07:38.053Z,17.00
2018-06-01T11:20:22.847Z,17.75
2018-06-01T11:21:26.865Z,19.75
2018-06-01T11:22:30.075Z,17.50
2018-06-01T11:23:32.917Z,15.75
2018-06-01T11:24:35.970Z,14.75
2018-06-01T11:25:39.502Z,16.00
2018-06-01T11:26:42.403Z,16.00
2018-06-01T11:27:45.251Z,14.50
2018-06-01T11:28:48.157Z,15.00
2018-06-01T11:29:51.118Z,17.00
2018-06-01T11:30:54.660Z,19.00
2018-06-01T11:31:57.934Z,17.50
2018-06-01T11:33:00.751Z,13.50
2018-06-01T11:34:04.601Z,18.50
2018-06-01T11:35:07.545Z,14.50
2018-06-01T11:36:10.537Z,18.00
2018-06-01T11:37:13.422Z,14.75
2018-06-01T11:38:16.790Z,14.00
2018-06-01T11:39:19.674Z,16.00
2018-06-01T11:40:22.509Z,13.00
2018-06-01T11:41:25.520Z,15.00
2018-06-01T11:42:28.634Z,15.25
2018-06-01T11:43:31.623Z,14.75
2018-06-01T11:44:35.347Z,16.00
2018-06-01T11:45:38.278Z,12.75
2018-06-01T11:46:41.162Z,16.00
2018-06-01T11:47:44.362Z,13.25
2018-06-01T11:48:47.517Z,10.50
2018-06-01T11:49:50.807Z,15.50
2018-06-01T11:50:54.014Z,15.50
2018-06-01T11:51:56.991Z,12.75
2018-06-01T11:53:00.527Z,16.00
2018-06-01T11:54:03.678Z,17.75
2018-06-01T11:55:06.561Z,15.00
2018-06-01T11:56:09.556Z,13.75
2018-06-01T11:57:12.887Z,16.25
2018-06-01T11:58:15.852Z,15.25
2018-06-01T11:59:18.799Z,16.75
2018-06-01T12:00:21.815Z,13.75
2018-06-01T12:01:24.807Z,14.25
2018-06-01T12:02:27.630Z,16.75
2018-06-01T12:03:30.968Z,16.00
2018-06-01T12:04:33.780Z,12.50
2018-06-01T12:05:36.608Z,12.75
2018-06-01T12:06:39.547Z,15.00
2018-06-01T12:07:42.370Z,11.75
2018-06-01T12:08:45.230Z,15.25
2018-06-01T12:09:48.716Z,13.75
2018-06-01T12:10:51.577Z,15.00
2018-06-01T12:11:55.049Z,12.25
2018-06-01T12:12:58.277Z,14.25
2018-06-01T12:14:01.408Z,13.75
2018-06-01T12:15:04.363Z,14.25
2018-06-01T12:16:07.676Z,12.75
2018-06-01T12:17:10.661Z,13.50
2018-06-01T12:18:13.479Z,17.75
2018-06-01T12:19:16.315Z,12.00
2018-06-01T12:20:19.237Z,16.75
2018-06-01T12:21:22.095Z,11.75
2018-06-01T12:22:25.284Z,12.25
2018-06-01T12:23:28.256Z,13.00
2018-06-01T12:24:31.184Z,15.75
2018-06-01T12:25:34.366Z,12.50
2018-06-01T12:26:37.298Z,13.50
2018-06-01T12:27:40.144Z,14.25
2018-06-01T12:28:43.872Z,15.00
2018-06-01T12:29:46.697Z,16.00
2018-06-01T12:30:49.529Z,15.00
2018-06-01T12:31:52.436Z,18.00
2018-06-01T12:32:55.288Z,17.75
2018-06-01T12:33:58.146Z,13.25
2018-06-01T12:35:01.620Z,12.50
2018-06-01T12:36:04.724Z,15.00
2018-06-01T12:37:07.690Z,14.50
2018-06-01T12:38:10.483Z,17.75
2018-06-01T12:39:13.727Z,11.50
2018-06-01T12:40:16.750Z,10.50
2018-06-01T12:41:20.154Z,12.75
2018-06-01T12:42:23.090Z,11.50
2018-06-01T12:43:26.004Z,11.00
2018-06-01T12:44:28.916Z,12.00
2018-06-01T12:45:31.880Z,13.00
2018-06-01T12:46:34.729Z,13.25
2018-06-01T12:47:37.896Z,13.50
2018-06-01T12:48:40.776Z,12.25
2018-06-01T12:49:43.657Z,14.25
2018-06-01T12:50:46.495Z,13.00
2018-06-01T12:51:49.333Z,11.00
2018-06-01T12:52:52.197Z,13.00
2018-06-01T12:53:55.436Z,13.50
2018-06-01T12:54:58.275Z,11.75
2018-06-01T12:56:01.103Z,13.00
2018-06-01T12:57:03.969Z,12.25
2018-06-01T12:58:06.855Z,14.00
2018-06-01T12:59:09.682Z,13.50
2018-06-01T13:00:12.474Z,11.00
2018-06-01T13:01:15.323Z,12.00
2018-06-01T13:02:18.182Z,12.00
2018-06-01T13:03:20.968Z,14.00
2018-06-01T13:04:23.796Z,12.00
2018-06-01T13:05:26.929Z,15.25
2018-06-01T13:06:30.593Z,14.75
2018-06-01T13:07:33.450Z,12.00
2018-06-01T13:08:36.257Z,11.00
2018-06-01T13:09:39.240Z,12.00
2018-06-01T13:10:42.154Z,11.00
2018-06-01T13:11:45.352Z,11.75
2018-06-01T13:12:48.206Z,11.25
2018-06-01T13:13:51.354Z,13.50
2018-06-01T13:14:54.278Z,14.25
2018-06-01T13:15:57.139Z,17.25
2018-06-01T13:16:59.988Z,15.00
2018-06-01T13:18:03.250Z,13.75
2018-06-01T13:19:06.085Z,15.75
2018-06-01T13:20:08.879Z,15.00
2018-06-01T13:21:11.692Z,16.00
2018-06-01T13:22:15.145Z,15.00
2018-06-01T13:23:18.014Z,17.50
2018-06-01T13:24:21.095Z,15.00
2018-06-01T13:25:23.917Z,13.75
2018-06-01T13:26:27.031Z,15.50
2018-06-01T13:27:29.850Z,14.75
2018-06-01T13:28:32.759Z,16.75
2018-06-01T13:29:35.614Z,15.50
2018-06-01T13:30:38.956Z,17.25
2018-06-01T13:31:41.849Z,17.25
2018-06-01T13:32:44.706Z,16.50
2018-06-01T13:33:47.773Z,17.00
2018-06-01T13:34:50.635Z,11.75
2018-06-01T13:35:53.620Z,14.75
2018-06-01T13:36:56.854Z,14.50
2018-06-01T13:37:59.701Z,10.75
2018-06-01T13:39:02.537Z,6.50
2018-06-01T13:40:05.368Z,6.25
2018-06-01T13:41:08.176Z,7.00
2018-06-01T13:42:10.974Z,5.00
2018-06-01T13:43:14.726Z,5.00
2018-06-01T13:44:17.516Z,5.00
2018-06-01T13:45:20.330Z,6.50
2018-06-01T13:46:23.178Z,5.00
2018-06-01T13:47:26.048Z,3.75
2018-06-01T13:48:28.862Z,6.00
2018-06-01T13:49:32.106Z,6.00
2018-06-01T13:50:35.597Z,8.75
2018-06-01T13:51:38.395Z,6.00
2018-06-01T13:52:41.250Z,7.00
2018-06-01T13:53:44.052Z,5.00
2018-06-01T13:54:46.891Z,6.00
2018-06-01T13:55:50.024Z,6.00
2018-06-01T13:56:52.838Z,5.00
2018-06-01T13:57:55.664Z,5.50